Time;durP1;ratioP1;P1;durP2;ratioP2;P2;SDS_P1;SDS_P2;PMS_P1;PMS_P2;Temp;Humidity;BMP_temperature;BMP_pressure;BME280_temperature;BME280_humidity;BME280_pressure;Samples;Min_cycle;Max_cycle;Signal;HPM_P1;HPM_P2
2024/01/31 00:00:05;;;;;;;12.40;5.37;;;;;;;;;;5060802;27;89685;-65
2024/01/31 00:02:34;;;;;;;8.67;4.63;;;;;;;;;;5061255;27;89190;-65
2024/01/31 00:05:02;;;;;;;8.50;5.00;;;;;;;;;;5061292;27;89096;-65
2024/01/31 00:07:31;;;;;;;9.03;4.83;;;;;;;;;;5061447;27;87881;-65
2024/01/31 00:10:01;;;;;;;7.47;4.37;;;;;;;;;;5060337;27;89656;-65
2024/01/31 00:12:30;;;;;;;10.77;4.97;;;;;;;;;;5061317;27;89092;-65
2024/01/31 00:14:58;;;;;;;8.10;4.47;;;;;;;;;;5066489;27;88828;-65
2024/01/31 00:17:27;;;;;;;7.13;4.30;;;;;;;;;;5063409;27;87754;-65
2024/01/31 00:19:55;;;;;;;7.73;4.93;;;;;;;;;;5061884;27;89602;-65
2024/01/31 00:22:23;;;;;;;7.90;4.03;;;;;;;;;;5064882;27;90178;-66
2024/01/31 00:24:52;;;;;;;6.77;3.60;;;;;;;;;;5077133;27;88886;-66
2024/01/31 00:27:22;;;;;;;6.97;4.30;;;;;;;;;;5063105;27;88394;-66
2024/01/31 00:29:50;;;;;;;5.60;4.17;;;;;;;;;;5065215;27;91107;-66
2024/01/31 00:32:19;;;;;;;4.57;4.10;;;;;;;;;;5065448;27;90019;-66
2024/01/31 00:34:47;;;;;;;7.37;4.40;;;;;;;;;;5060934;27;89709;-67
2024/01/31 00:37:15;;;;;;;7.00;4.20;;;;;;;;;;5059076;27;87517;-66
2024/01/31 00:39:48;;;;;;;6.60;4.73;;;;;;;;;;5058723;27;89773;-67
2024/01/31 00:42:16;;;;;;;7.87;4.60;;;;;;;;;;5060753;27;87702;-66
2024/01/31 00:44:46;;;;;;;7.13;4.33;;;;;;;;;;5060841;27;87535;-66
2024/01/31 00:47:14;;;;;;;6.53;4.30;;;;;;;;;;5060605;27;87501;-66
2024/01/31 00:49:43;;;;;;;9.13;4.93;;;;;;;;;;5053132;27;89696;-66
2024/01/31 00:52:11;;;;;;;6.53;4.27;;;;;;;;;;5040213;28;89172;-65
2024/01/31 00:54:40;;;;;;;7.37;4.80;;;;;;;;;;5042747;27;89050;-65
2024/01/31 00:57:08;;;;;;;9.67;4.27;;;;;;;;;;5052054;27;87996;-65
2024/01/31 00:59:36;;;;;;;4.97;3.90;;;;;;;;;;5063505;27;89363;-65
2024/01/31 01:02:06;;;;;;;5.40;3.77;;;;;;;;;;5059489;27;89058;-65
2024/01/31 01:04:35;;;;;;;6.07;3.67;;;;;;;;;;5061653;27;88875;-65
2024/01/31 01:07:03;;;;;;;5.13;4.03;;;;;;;;;;5052673;27;87632;-65
2024/01/31 01:09:32;;;;;;;7.47;4.10;;;;;;;;;;5061475;27;89834;-65
2024/01/31 01:12:00;;;;;;;5.43;3.70;;;;;;;;;;5061227;27;90830;-65
2024/01/31 01:14:28;;;;;;;7.40;3.53;;;;;;;;;;5054958;27;89107;-65
2024/01/31 01:16:57;;;;;;;5.20;3.10;;;;;;;;;;5047609;27;87662;-65
2024/01/31 01:19:26;;;;;;;5.40;3.07;;;;;;;;;;5064535;27;90045;-69
2024/01/31 01:21:56;;;;;;;5.53;3.50;;;;;;;;;;5062414;27;89717;-70
2024/01/31 01:24:25;;;;;;;5.97;4.23;;;;;;;;;;5051863;27;89649;-69
2024/01/31 01:26:53;;;;;;;6.83;4.03;;;;;;;;;;5062731;27;87642;-69
2024/01/31 01:29:22;;;;;;;6.40;3.50;;;;;;;;;;5062565;27;90976;-73
2024/01/31 01:31:50;;;;;;;3.70;2.70;;;;;;;;;;5048027;27;89163;-69
2024/01/31 01:34:18;;;;;;;5.60;3.80;;;;;;;;;;5071466;27;87774;-74
2024/01/31 01:36:48;;;;;;;5.20;3.03;;;;;;;;;;5042543;28;87647;-71
2024/01/31 01:39:17;;;;;;;3.90;2.77;;;;;;;;;;5049832;27;89592;-71
2024/01/31 01:41:49;;;;;;;5.20;3.40;;;;;;;;;;5045548;27;90435;-69
2024/01/31 01:44:17;;;;;;;5.87;2.63;;;;;;;;;;5042353;27;88746;-71
2024/01/31 01:46:45;;;;;;;3.87;2.60;;;;;;;;;;5058480;27;87985;-71
2024/01/31 01:49:14;;;;;;;4.50;2.90;;;;;;;;;;5062766;27;89465;-71
2024/01/31 01:51:44;;;;;;;5.60;3.07;;;;;;;;;;5062683;27;89281;-73
2024/01/31 01:54:14;;;;;;;4.10;2.70;;;;;;;;;;5062586;27;87776;-72
2024/01/31 01:56:44;;;;;;;4.97;2.60;;;;;;;;;;5061907;27;87601;-73
2024/01/31 01:59:12;;;;;;;4.17;3.10;;;;;;;;;;5042028;28;88532;-73
2024/01/31 02:01:41;;;;;;;3.97;2.73;;;;;;;;;;5041869;27;89123;-73
2024/01/31 02:04:09;;;;;;;3.23;2.37;;;;;;;;;;5054450;27;88618;-73
2024/01/31 02:06:38;;;;;;;4.77;2.83;;;;;;;;;;5062538;27;87713;-73
2024/01/31 02:09:06;;;;;;;2.80;2.10;;;;;;;;;;5062220;27;89964;-74
2024/01/31 02:11:36;;;;;;;2.00;1.80;;;;;;;;;;5061670;27;89962;-71
2024/01/31 02:14:04;;;;;;;3.70;2.27;;;;;;;;;;5059194;27;89768;-72
2024/01/31 02:16:33;;;;;;;2.77;2.40;;;;;;;;;;5042541;27;87596;-72
2024/01/31 02:19:01;;;;;;;4.27;2.13;;;;;;;;;;5041106;27;89593;-72
2024/01/31 02:21:30;;;;;;;2.60;2.23;;;;;;;;;;5042106;27;92075;-72
2024/01/31 02:24:01;;;;;;;2.17;1.80;;;;;;;;;;5042077;27;87742;-72
2024/01/31 02:26:29;;;;;;;2.83;1.67;;;;;;;;;;5041739;27;87172;-72
2024/01/31 02:28:57;;;;;;;2.70;1.63;;;;;;;;;;5057551;27;88438;-72
2024/01/31 02:31:26;;;;;;;2.57;1.90;;;;;;;;;;5056501;27;89125;-70
2024/01/31 02:33:54;;;;;;;4.40;2.17;;;;;;;;;;5057428;27;88802;-72
2024/01/31 02:36:23;;;;;;;4.97;1.87;;;;;;;;;;5061732;27;87652;-72
2024/01/31 02:38:51;;;;;;;2.30;1.40;;;;;;;;;;5061865;27;88500;-72
2024/01/31 02:41:21;;;;;;;3.20;2.33;;;;;;;;;;5062197;27;89107;-72
2024/01/31 02:43:50;;;;;;;3.67;1.87;;;;;;;;;;5061489;27;88707;-72
2024/01/31 02:46:18;;;;;;;3.73;1.70;;;;;;;;;;5061933;27;87660;-72
2024/01/31 02:48:48;;;;;;;3.37;2.00;;;;;;;;;;5053120;27;89606;-72
2024/01/31 02:51:17;;;;;;;3.03;1.83;;;;;;;;;;5041326;27;88993;-71
2024/01/31 02:53:45;;;;;;;4.00;1.90;;;;;;;;;;5041519;27;89174;-71
2024/01/31 02:56:14;;;;;;;2.43;1.80;;;;;;;;;;5041411;27;87594;-71
2024/01/31 02:58:43;;;;;;;2.43;1.47;;;;;;;;;;5040515;27;88513;-71
2024/01/31 03:01:12;;;;;;;1.50;1.40;;;;;;;;;;5051108;27;90225;-69
2024/01/31 03:03:40;;;;;;;2.13;1.53;;;;;;;;;;5045337;27;89661;-70
2024/01/31 03:06:09;;;;;;;3.10;1.60;;;;;;;;;;5053694;27;87731;-70
2024/01/31 03:08:37;;;;;;;1.33;1.23;;;;;;;;;;5061365;27;89429;-70
2024/01/31 03:11:05;;;;;;;2.97;1.60;;;;;;;;;;5061039;27;89012;-70
2024/01/31 03:13:34;;;;;;;2.40;1.27;;;;;;;;;;5061317;27;88815;-71
2024/01/31 03:16:04;;;;;;;1.90;1.37;;;;;;;;;;5061315;27;87672;-70
2024/01/31 03:18:32;;;;;;;3.87;1.93;;;;;;;;;;5061303;27;89609;-72
2024/01/31 03:21:01;;;;;;;1.57;1.37;;;;;;;;;;5060586;27;89204;-73
2024/01/31 03:23:29;;;;;;;1.10;1.00;;;;;;;;;;5059208;27;88833;-72
2024/01/31 03:25:57;;;;;;;2.33;1.40;;;;;;;;;;5060076;27;87990;-72
2024/01/31 03:28:26;;;;;;;2.73;1.50;;;;;;;;;;5061342;27;89945;-72
2024/01/31 03:30:54;;;;;;;2.27;1.20;;;;;;;;;;5060613;27;88036;-72
2024/01/31 03:33:24;;;;;;;1.00;0.90;;;;;;;;;;5061142;27;87460;-72
2024/01/31 03:35:52;;;;;;;2.43;1.10;;;;;;;;;;5061187;27;87623;-70
2024/01/31 03:38:21;;;;;;;2.03;1.17;;;;;;;;;;5060899;27;89782;-70
2024/01/31 03:40:50;;;;;;;1.13;1.03;;;;;;;;;;5043220;27;89110;-70
2024/01/31 03:43:19;;;;;;;2.43;1.13;;;;;;;;;;5067218;27;88895;-70
2024/01/31 03:45:47;;;;;;;1.23;1.13;;;;;;;;;;5052813;27;87619;-70
2024/01/31 03:48:15;;;;;;;2.17;1.00;;;;;;;;;;5040393;27;89575;-70
2024/01/31 03:50:45;;;;;;;1.63;1.03;;;;;;;;;;5039469;27;89864;-70
2024/01/31 03:53:13;;;;;;;1.63;1.40;;;;;;;;;;5051349;27;89774;-70
2024/01/31 03:55:42;;;;;;;2.23;1.50;;;;;;;;;;5052144;27;87606;-70
2024/01/31 03:58:10;;;;;;;0.73;0.63;;;;;;;;;;5037534;28;88602;-70
2024/01/31 04:00:39;;;;;;;1.27;1.00;;;;;;;;;;5049575;27;89339;-70
2024/01/31 04:03:07;;;;;;;1.80;1.00;;;;;;;;;;5044934;27;87654;-70
2024/01/31 04:05:36;;;;;;;1.10;1.00;;;;;;;;;;5055250;27;87691;-70
2024/01/31 04:08:06;;;;;;;1.53;1.00;;;;;;;;;;5037840;28;89718;-71
2024/01/31 04:10:36;;;;;;;1.83;1.00;;;;;;;;;;5036449;27;87556;-71
2024/01/31 04:13:05;;;;;;;0.97;0.97;;;;;;;;;;5043275;27;88951;-70
2024/01/31 04:15:34;;;;;;;0.97;0.90;;;;;;;;;;5050817;27;88040;-71
2024/01/31 04:18:03;;;;;;;0.83;0.70;;;;;;;;;;5057212;27;92516;-70
2024/01/31 04:20:31;;;;;;;1.67;0.90;;;;;;;;;;5054472;27;89251;-70
2024/01/31 04:23:00;;;;;;;0.97;0.87;;;;;;;;;;5057834;27;89089;-70
2024/01/31 04:25:29;;;;;;;1.03;0.80;;;;;;;;;;5056986;27;87510;-70
2024/01/31 04:27:58;;;;;;;3.33;1.10;;;;;;;;;;5057955;27;90170;-71
2024/01/31 04:30:26;;;;;;;0.60;0.60;;;;;;;;;;5053957;27;89329;-70
2024/01/31 04:33:01;;;;;;;0.73;0.60;;;;;;;;;;5057780;27;88814;-71
2024/01/31 04:35:29;;;;;;;1.43;0.90;;;;;;;;;;5057930;27;88155;-71
2024/01/31 04:37:58;;;;;;;1.03;0.90;;;;;;;;;;5057216;27;88596;-70
2024/01/31 04:40:26;;;;;;;1.70;0.80;;;;;;;;;;5057390;27;90056;-70
2024/01/31 04:42:56;;;;;;;0.77;0.63;;;;;;;;;;5060675;27;89880;-70
2024/01/31 04:45:24;;;;;;;2.20;0.93;;;;;;;;;;5056736;27;88173;-70
2024/01/31 04:47:53;;;;;;;0.50;0.50;;;;;;;;;;5045410;27;89778;-70
2024/01/31 04:50:21;;;;;;;2.10;1.03;;;;;;;;;;5051229;27;89054;-66
2024/01/31 04:52:50;;;;;;;0.90;0.60;;;;;;;;;;5058685;27;88926;-68
2024/01/31 04:55:18;;;;;;;0.97;0.80;;;;;;;;;;5057458;27;87592;-68
2024/01/31 04:57:47;;;;;;;2.53;1.00;;;;;;;;;;5060379;27;89788;-68
2024/01/31 05:00:18;;;;;;;2.30;0.87;;;;;;;;;;5053356;27;89012;-67
2024/01/31 05:02:46;;;;;;;1.43;1.10;;;;;;;;;;5060332;27;89091;-68
2024/01/31 05:05:14;;;;;;;2.70;1.30;;;;;;;;;;5054006;27;88081;-68
2024/01/31 05:07:43;;;;;;;2.03;1.00;;;;;;;;;;5049242;27;89595;-68
2024/01/31 05:10:12;;;;;;;1.03;0.93;;;;;;;;;;5047981;27;89134;-68
2024/01/31 05:12:40;;;;;;;1.00;0.90;;;;;;;;;;5046003;27;88802;-68
2024/01/31 05:15:09;;;;;;;2.43;1.40;;;;;;;;;;5053480;27;87502;-68
2024/01/31 05:17:40;;;;;;;1.57;1.30;;;;;;;;;;5041954;27;88501;-68
2024/01/31 05:20:09;;;;;;;3.53;1.87;;;;;;;;;;5056767;27;89100;-69
2024/01/31 05:22:37;;;;;;;1.87;1.33;;;;;;;;;;5061631;27;88850;-68
2024/01/31 05:25:07;;;;;;;2.67;1.47;;;;;;;;;;5046539;27;87430;-66
2024/01/31 05:27:36;;;;;;;3.50;2.17;;;;;;;;;;5040609;27;89755;-66
2024/01/31 05:30:04;;;;;;;2.73;1.63;;;;;;;;;;5051219;27;90042;-66
2024/01/31 05:32:33;;;;;;;2.33;1.90;;;;;;;;;;5061558;27;90011;-66
2024/01/31 05:35:03;;;;;;;3.30;1.90;;;;;;;;;;5062912;27;87428;-66
2024/01/31 05:37:31;;;;;;;1.60;1.30;;;;;;;;;;5062630;27;89635;-66
2024/01/31 05:40:00;;;;;;;2.70;1.23;;;;;;;;;;5048275;27;89290;-66
2024/01/31 05:42:28;;;;;;;1.93;1.20;;;;;;;;;;5054144;27;88995;-68
2024/01/31 05:44:57;;;;;;;2.20;1.40;;;;;;;;;;5051281;27;87644;-70
2024/01/31 05:47:25;;;;;;;2.13;1.30;;;;;;;;;;5061672;27;89617;-69
2024/01/31 05:49:53;;;;;;;4.40;1.47;;;;;;;;;;5060176;27;89131;-70
2024/01/31 05:52:23;;;;;;;2.17;1.10;;;;;;;;;;5055984;27;89434;-70
2024/01/31 05:54:51;;;;;;;3.33;1.67;;;;;;;;;;5057080;27;87869;-70
2024/01/31 05:57:20;;;;;;;1.77;1.37;;;;;;;;;;5061863;27;89592;-70
2024/01/31 05:59:48;;;;;;;1.80;1.30;;;;;;;;;;5060979;27;88965;-69
2024/01/31 06:02:17;;;;;;;2.73;1.27;;;;;;;;;;5052631;27;89251;-67
2024/01/31 06:04:45;;;;;;;3.13;1.33;;;;;;;;;;5042169;27;87334;-68
2024/01/31 06:07:14;;;;;;;2.87;1.43;;;;;;;;;;5060803;27;89184;-69
2024/01/31 06:09:43;;;;;;;2.63;1.50;;;;;;;;;;5052654;27;89079;-69
2024/01/31 06:12:12;;;;;;;1.63;1.07;;;;;;;;;;5054966;27;88758;-67
2024/01/31 06:14:40;;;;;;;1.97;1.17;;;;;;;;;;5045824;27;87766;-70
2024/01/31 06:17:09;;;;;;;3.63;1.47;;;;;;;;;;5056617;27;93094;-70
2024/01/31 06:19:38;;;;;;;2.47;1.40;;;;;;;;;;5041483;27;89095;-70
2024/01/31 06:22:07;;;;;;;4.50;1.93;;;;;;;;;;5050155;27;89814;-69
2024/01/31 06:24:36;;;;;;;3.23;1.23;;;;;;;;;;5061819;27;87608;-69
2024/01/31 06:27:06;;;;;;;3.07;1.53;;;;;;;;;;5060242;27;91619;-69
2024/01/31 06:29:34;;;;;;;4.67;1.80;;;;;;;;;;5044031;27;89249;-68
2024/01/31 06:32:02;;;;;;;2.73;1.40;;;;;;;;;;5045143;27;88876;-68
2024/01/31 06:34:31;;;;;;;2.03;1.43;;;;;;;;;;5041897;27;87145;-68
2024/01/31 06:36:59;;;;;;;1.53;1.43;;;;;;;;;;5053510;27;89705;-68
2024/01/31 06:39:28;;;;;;;1.73;1.40;;;;;;;;;;5041374;27;90369;-68
2024/01/31 06:41:56;;;;;;;3.07;1.40;;;;;;;;;;5048516;27;88406;-69
2024/01/31 06:44:26;;;;;;;2.93;1.73;;;;;;;;;;5041519;27;87831;-69
2024/01/31 06:46:54;;;;;;;2.50;1.43;;;;;;;;;;5060723;27;88467;-69
2024/01/31 06:49:24;;;;;;;1.53;1.20;;;;;;;;;;5059729;27;89135;-69
2024/01/31 06:51:53;;;;;;;2.53;1.03;;;;;;;;;;5061633;27;87909;-70
2024/01/31 06:54:21;;;;;;;2.13;1.50;;;;;;;;;;5061976;27;87025;-71
2024/01/31 06:56:49;;;;;;;1.30;1.03;;;;;;;;;;5061493;27;89539;-71
2024/01/31 06:59:18;;;;;;;1.87;1.53;;;;;;;;;;5073146;27;89345;-71
2024/01/31 07:01:47;;;;;;;1.77;1.50;;;;;;;;;;5060311;27;87692;-71
2024/01/31 07:04:16;;;;;;;1.97;1.23;;;;;;;;;;5043970;27;87470;-71
2024/01/31 07:06:44;;;;;;;3.93;2.33;;;;;;;;;;5057967;27;91431;-71
2024/01/31 07:09:13;;;;;;;1.73;1.20;;;;;;;;;;5054706;27;90135;-72
2024/01/31 07:11:41;;;;;;;3.87;1.70;;;;;;;;;;5061247;27;89710;-69
2024/01/31 07:14:09;;;;;;;2.63;1.27;;;;;;;;;;5059583;27;87626;-69
2024/01/31 07:16:38;;;;;;;2.77;1.80;;;;;;;;;;5052544;27;89635;-69
2024/01/31 07:19:08;;;;;;;1.47;1.30;;;;;;;;;;5055773;27;89088;-69
2024/01/31 07:21:36;;;;;;;1.40;1.30;;;;;;;;;;5049980;27;89004;-69
2024/01/31 07:24:05;;;;;;;3.90;2.20;;;;;;;;;;5059299;27;87617;-70
2024/01/31 07:26:47;;;;;;;3.07;1.90;;;;;;;;;;5060516;27;89739;-71
2024/01/31 07:29:15;;;;;;;2.57;1.73;;;;;;;;;;5044801;27;88820;-70
2024/01/31 07:31:44;;;;;;;3.53;1.80;;;;;;;;;;5053567;27;91854;-70
2024/01/31 07:34:14;;;;;;;2.47;1.87;;;;;;;;;;5060539;27;87807;-71
2024/01/31 07:36:42;;;;;;;4.37;2.00;;;;;;;;;;5061233;27;89722;-72
2024/01/31 07:39:11;;;;;;;4.00;2.30;;;;;;;;;;5058611;27;87966;-72
2024/01/31 07:41:39;;;;;;;2.50;1.97;;;;;;;;;;5060784;27;88779;-69
2024/01/31 07:44:08;;;;;;;4.87;3.07;;;;;;;;;;5060794;27;88424;-72
2024/01/31 07:46:36;;;;;;;5.10;2.87;;;;;;;;;;5060564;27;89643;-72
2024/01/31 07:49:06;;;;;;;4.67;2.47;;;;;;;;;;5060021;27;88398;-73
2024/01/31 07:51:40;;;;;;;5.03;3.10;;;;;;;;;;5061045;27;89301;-73
2024/01/31 07:54:09;;;;;;;7.57;3.50;;;;;;;;;;5057419;27;87550;-73
2024/01/31 07:56:37;;;;;;;4.90;2.93;;;;;;;;;;5050674;27;89595;-72
2024/01/31 07:59:06;;;;;;;5.20;2.80;;;;;;;;;;5059265;27;90312;-73
2024/01/31 08:01:35;;;;;;;5.77;2.70;;;;;;;;;;5060017;27;89477;-73
2024/01/31 08:04:03;;;;;;;6.77;3.70;;;;;;;;;;5061013;27;87165;-73
2024/01/31 08:06:32;;;;;;;9.03;4.03;;;;;;;;;;5060234;27;88694;-73
2024/01/31 08:09:03;;;;;;;7.70;4.00;;;;;;;;;;5060772;27;89500;-70
2024/01/31 08:11:43;;;;;;;5.43;3.40;;;;;;;;;;5053060;27;89035;-71
2024/01/31 08:14:12;;;;;;;7.17;4.17;;;;;;;;;;5056470;27;88440;-68
2024/01/31 08:16:40;;;;;;;7.97;4.30;;;;;;;;;;5062498;27;89703;-66
2024/01/31 08:19:09;;;;;;;6.00;4.30;;;;;;;;;;5045593;27;88036;-66
2024/01/31 08:21:37;;;;;;;5.77;4.00;;;;;;;;;;5054707;27;88795;-66
2024/01/31 08:24:07;;;;;;;9.63;4.13;;;;;;;;;;5063575;27;87828;-67
2024/01/31 08:26:36;;;;;;;7.07;4.23;;;;;;;;;;5059939;27;89671;-67
2024/01/31 08:29:04;;;;;;;14.30;5.00;;;;;;;;;;5055562;27;89181;-66
2024/01/31 08:31:47;;;;;;;8.63;4.50;;;;;;;;;;5055065;27;91643;-69
2024/01/31 08:34:17;;;;;;;6.20;3.47;;;;;;;;;;5062621;27;87653;-66
2024/01/31 08:36:45;;;;;;;7.70;4.27;;;;;;;;;;5062285;27;89357;-64
2024/01/31 08:39:15;;;;;;;7.00;4.27;;;;;;;;;;5052802;27;89061;-70
2024/01/31 08:41:44;;;;;;;7.17;4.63;;;;;;;;;;5063919;27;89007;-68
2024/01/31 08:44:12;;;;;;;6.77;4.00;;;;;;;;;;5063631;27;87614;-68
2024/01/31 08:46:41;;;;;;;5.80;4.10;;;;;;;;;;5061906;27;89644;-68
2024/01/31 08:49:29;;;;;;;10.07;4.40;;;;;;;;;;5056309;27;90707;-68
2024/01/31 08:51:58;;;;;;;10.73;4.33;;;;;;;;;;5058140;27;89855;-68
2024/01/31 08:54:30;;;;;;;9.70;4.70;;;;;;;;;;5050266;27;87609;-69
2024/01/31 08:56:59;;;;;;;6.93;4.20;;;;;;;;;;5062763;27;89611;-70
2024/01/31 08:59:27;;;;;;;8.60;4.53;;;;;;;;;;5062680;27;88901;-69
2024/01/31 09:01:56;;;;;;;6.20;4.27;;;;;;;;;;5057933;27;88893;-69
2024/01/31 09:04:24;;;;;;;6.93;4.53;;;;;;;;;;5062265;27;87609;-69
2024/01/31 09:06:53;;;;;;;7.70;5.70;;;;;;;;;;5061357;27;89674;-69
2024/01/31 09:09:21;;;;;;;7.37;4.43;;;;;;;;;;5057330;27;88161;-69
2024/01/31 09:11:51;;;;;;;6.57;4.73;;;;;;;;;;5052376;27;88921;-68
2024/01/31 09:14:19;;;;;;;7.33;4.93;;;;;;;;;;5056811;27;90086;-70
2024/01/31 09:16:48;;;;;;;10.07;4.40;;;;;;;;;;5062688;27;89865;-70
2024/01/31 09:19:16;;;;;;;7.83;4.30;;;;;;;;;;5057320;27;89273;-71
2024/01/31 09:21:45;;;;;;;7.03;4.53;;;;;;;;;;5063136;27;87706;-71
2024/01/31 09:24:13;;;;;;;8.20;5.00;;;;;;;;;;5063407;27;87155;-71
2024/01/31 09:26:41;;;;;;;6.97;4.70;;;;;;;;;;5062011;27;89603;-71
2024/01/31 09:29:11;;;;;;;7.07;5.07;;;;;;;;;;5062560;27;89135;-71
2024/01/31 09:31:40;;;;;;;5.97;4.27;;;;;;;;;;5062881;27;89045;-70
2024/01/31 09:34:09;;;;;;;7.63;4.50;;;;;;;;;;5062943;27;87615;-71
2024/01/31 09:36:37;;;;;;;5.73;3.97;;;;;;;;;;5061001;27;88484;-70
2024/01/31 09:39:06;;;;;;;4.70;3.93;;;;;;;;;;5062114;27;90056;-71
2024/01/31 09:41:34;;;;;;;5.60;4.10;;;;;;;;;;5062128;27;89638;-71
2024/01/31 09:44:03;;;;;;;4.63;3.63;;;;;;;;;;5061724;27;87406;-70
2024/01/31 09:46:33;;;;;;;5.77;4.70;;;;;;;;;;5058303;27;89747;-71
2024/01/31 09:49:01;;;;;;;7.47;4.17;;;;;;;;;;5059708;27;89214;-70
2024/01/31 09:51:32;;;;;;;4.93;3.67;;;;;;;;;;5062599;27;90818;-70
2024/01/31 09:54:00;;;;;;;8.00;3.90;;;;;;;;;;5058654;27;87605;-70
2024/01/31 09:56:32;;;;;;;7.53;3.73;;;;;;;;;;5062327;27;89782;-70
2024/01/31 09:59:01;;;;;;;5.80;3.87;;;;;;;;;;5062329;27;87938;-70
2024/01/31 10:01:29;;;;;;;5.70;3.97;;;;;;;;;;5066578;27;89233;-72
2024/01/31 10:04:02;;;;;;;9.70;4.03;;;;;;;;;;5064581;27;87919;-72
2024/01/31 10:06:31;;;;;;;5.67;4.03;;;;;;;;;;5061945;27;89813;-72
2024/01/31 10:09:01;;;;;;;5.40;4.07;;;;;;;;;;5062208;27;89252;-73
2024/01/31 10:11:31;;;;;;;5.43;3.70;;;;;;;;;;5047916;27;88770;-73
2024/01/31 10:14:00;;;;;;;5.27;3.53;;;;;;;;;;5042425;27;87726;-72
2024/01/31 10:16:28;;;;;;;7.57;3.33;;;;;;;;;;5042453;27;89956;-72
2024/01/31 10:18:57;;;;;;;5.67;3.37;;;;;;;;;;5042281;28;89093;-72
2024/01/31 10:21:27;;;;;;;6.53;3.27;;;;;;;;;;5049719;27;89183;-72
2024/01/31 10:23:58;;;;;;;5.60;3.37;;;;;;;;;;5062526;27;87518;-72
2024/01/31 10:26:27;;;;;;;4.23;3.10;;;;;;;;;;5059702;27;89633;-71
2024/01/31 10:28:56;;;;;;;5.17;3.50;;;;;;;;;;5059662;27;90014;-71
2024/01/31 10:31:37;;;;;;;5.27;3.03;;;;;;;;;;5062499;27;89812;-72
2024/01/31 10:34:07;;;;;;;3.53;2.67;;;;;;;;;;5062294;27;87472;-72
2024/01/31 10:36:40;;;;;;;5.13;3.17;;;;;;;;;;5061922;27;89717;-72
2024/01/31 10:39:11;;;;;;;6.70;3.73;;;;;;;;;;5061796;27;88738;-71
2024/01/31 10:41:41;;;;;;;4.43;3.37;;;;;;;;;;5049643;27;88969;-72
2024/01/31 10:44:10;;;;;;;5.50;3.30;;;;;;;;;;5042193;27;87686;-72
2024/01/31 10:46:39;;;;;;;7.60;3.37;;;;;;;;;;5050038;27;89929;-72
2024/01/31 10:49:08;;;;;;;8.03;3.30;;;;;;;;;;5057740;27;88028;-72
2024/01/31 10:51:38;;;;;;;4.53;2.83;;;;;;;;;;5058809;27;88831;-72
2024/01/31 10:54:07;;;;;;;5.80;3.23;;;;;;;;;;5061412;27;87860;-72
2024/01/31 10:56:35;;;;;;;7.80;3.00;;;;;;;;;;5061153;27;89682;-72
2024/01/31 10:59:04;;;;;;;6.47;2.67;;;;;;;;;;5061060;27;87975;-71
2024/01/31 11:01:32;;;;;;;5.33;3.00;;;;;;;;;;5060871;27;87763;-71
2024/01/31 11:04:02;;;;;;;5.47;3.03;;;;;;;;;;5061340;27;87613;-72
2024/01/31 11:06:31;;;;;;;4.47;2.83;;;;;;;;;;5060316;27;89603;-71
2024/01/31 11:09:02;;;;;;;8.00;4.00;;;;;;;;;;5048402;27;89007;-71
2024/01/31 11:11:30;;;;;;;3.77;2.67;;;;;;;;;;5059420;27;88933;-70
2024/01/31 11:14:08;;;;;;;8.47;3.60;;;;;;;;;;5061477;27;87689;-70
2024/01/31 11:16:36;;;;;;;7.07;3.90;;;;;;;;;;5061139;27;89676;-71
2024/01/31 11:19:05;;;;;;;12.20;3.60;;;;;;;;;;5050230;27;90063;-70
2024/01/31 11:21:36;;;;;;;5.20;2.97;;;;;;;;;;5041295;28;89886;-70
2024/01/31 11:24:06;;;;;;;4.50;3.23;;;;;;;;;;5041985;27;87656;-70
2024/01/31 11:26:39;;;;;;;5.87;3.40;;;;;;;;;;5061060;27;89576;-70
2024/01/31 11:29:08;;;;;;;4.20;3.27;;;;;;;;;;5060901;27;89168;-71
2024/01/31 11:31:37;;;;;;;5.13;3.10;;;;;;;;;;5061677;27;87778;-71
2024/01/31 11:34:05;;;;;;;5.33;3.30;;;;;;;;;;5061414;27;87584;-71
2024/01/31 11:36:33;;;;;;;6.37;3.77;;;;;;;;;;5046236;27;89359;-71
2024/01/31 11:39:01;;;;;;;5.10;2.60;;;;;;;;;;5041928;27;89292;-71
2024/01/31 11:41:31;;;;;;;7.87;3.43;;;;;;;;;;5056551;27;88793;-71
2024/01/31 11:44:00;;;;;;;4.83;3.23;;;;;;;;;;5046994;27;89919;-71
2024/01/31 11:46:28;;;;;;;14.80;9.33;;;;;;;;;;5040816;28;89440;-67
2024/01/31 11:48:56;;;;;;;23.43;12.80;;;;;;;;;;5040876;28;89037;-69
2024/01/31 11:51:25;;;;;;;25.93;13.17;;;;;;;;;;5042353;28;88912;-68
2024/01/31 11:53:54;;;;;;;22.40;11.93;;;;;;;;;;5070716;27;88068;-69
2024/01/31 11:56:22;;;;;;;20.87;10.70;;;;;;;;;;5049756;27;88328;-69
2024/01/31 11:58:53;;;;;;;18.70;10.70;;;;;;;;;;5052459;27;89329;-69
2024/01/31 12:01:21;;;;;;;16.80;9.10;;;;;;;;;;5064553;27;87620;-68
2024/01/31 12:03:49;;;;;;;15.97;10.70;;;;;;;;;;5058705;27;87622;-69
2024/01/31 12:06:19;;;;;;;18.83;9.70;;;;;;;;;;5063589;27;89675;-69
2024/01/31 12:08:47;;;;;;;17.30;8.93;;;;;;;;;;5063062;27;88926;-69
2024/01/31 12:11:16;;;;;;;21.47;10.43;;;;;;;;;;5043946;27;89971;-69
2024/01/31 12:13:45;;;;;;;15.53;9.10;;;;;;;;;;5043845;27;87623;-69
2024/01/31 12:16:15;;;;;;;12.90;9.40;;;;;;;;;;5044183;28;91978;-69
2024/01/31 12:18:43;;;;;;;12.10;7.93;;;;;;;;;;5057385;27;89065;-69
2024/01/31 12:21:12;;;;;;;15.60;8.93;;;;;;;;;;5064104;27;88880;-69
2024/01/31 12:23:40;;;;;;;13.87;8.10;;;;;;;;;;5064283;27;87626;-69
2024/01/31 12:26:10;;;;;;;14.30;7.43;;;;;;;;;;5060584;27;89718;-69
2024/01/31 12:28:41;;;;;;;13.33;7.37;;;;;;;;;;5043871;27;88995;-69
2024/01/31 12:31:09;;;;;;;18.10;9.13;;;;;;;;;;5043763;28;87771;-69
2024/01/31 12:33:39;;;;;;;13.30;6.43;;;;;;;;;;5044018;27;87974;-70
2024/01/31 12:36:10;;;;;;;10.83;7.13;;;;;;;;;;5053434;27;92187;-69
2024/01/31 12:38:40;;;;;;;11.57;6.93;;;;;;;;;;5070818;27;89062;-69
2024/01/31 12:41:08;;;;;;;15.47;7.37;;;;;;;;;;5063485;27;88897;-69
2024/01/31 12:43:37;;;;;;;11.27;8.03;;;;;;;;;;5063141;27;87609;-69
2024/01/31 12:46:06;;;;;;;11.47;7.17;;;;;;;;;;5057841;27;88154;-69
2024/01/31 12:48:34;;;;;;;15.80;8.03;;;;;;;;;;5063381;27;89011;-69
2024/01/31 12:51:04;;;;;;;14.23;7.60;;;;;;;;;;5053966;27;89004;-69
2024/01/31 12:53:32;;;;;;;9.70;6.43;;;;;;;;;;5062225;27;87702;-69
2024/01/31 12:56:00;;;;;;;7.97;6.07;;;;;;;;;;5063368;27;87539;-69
2024/01/31 12:58:29;;;;;;;10.33;6.37;;;;;;;;;;5063118;27;90172;-69
2024/01/31 13:00:57;;;;;;;11.97;6.87;;;;;;;;;;5062402;27;89785;-69
2024/01/31 13:03:25;;;;;;;12.33;6.53;;;;;;;;;;5059494;27;87680;-70
2024/01/31 13:05:55;;;;;;;15.10;7.13;;;;;;;;;;5053876;27;89327;-70
2024/01/31 13:08:28;;;;;;;8.20;6.30;;;;;;;;;;5063455;27;89117;-70
2024/01/31 13:10:57;;;;;;;11.20;6.27;;;;;;;;;;5063329;27;88727;-70
2024/01/31 13:13:25;;;;;;;12.27;5.93;;;;;;;;;;5063481;27;87625;-66
2024/01/31 13:15:54;;;;;;;6.77;5.50;;;;;;;;;;5063515;27;89642;-66
2024/01/31 13:18:22;;;;;;;9.70;5.10;;;;;;;;;;5049561;27;89124;-66
2024/01/31 13:20:51;;;;;;;6.43;4.67;;;;;;;;;;5042802;27;88693;-66
2024/01/31 13:23:19;;;;;;;6.83;5.20;;;;;;;;;;5058864;27;88127;-66
2024/01/31 13:25:49;;;;;;;8.37;5.03;;;;;;;;;;5062362;27;88340;-66
2024/01/31 13:28:17;;;;;;;9.03;5.50;;;;;;;;;;5063079;27;89138;-66
2024/01/31 13:30:46;;;;;;;11.10;5.10;;;;;;;;;;5060561;27;88848;-66
2024/01/31 13:33:15;;;;;;;6.63;3.70;;;;;;;;;;5063211;27;87606;-66
2024/01/31 13:35:44;;;;;;;4.07;3.20;;;;;;;;;;5046083;27;89665;-66
2024/01/31 13:38:12;;;;;;;5.03;3.40;;;;;;;;;;5060635;27;89182;-66
2024/01/31 13:40:40;;;;;;;5.10;3.57;;;;;;;;;;5060410;27;88907;-66
2024/01/31 13:43:10;;;;;;;5.00;3.37;;;;;;;;;;5061342;27;88499;-66
2024/01/31 13:45:39;;;;;;;4.87;3.07;;;;;;;;;;5061701;27;89735;-66
2024/01/31 13:48:07;;;;;;;6.83;2.90;;;;;;;;;;5060870;27;90106;-66
2024/01/31 13:50:39;;;;;;;3.80;2.40;;;;;;;;;;5061089;27;89927;-66
2024/01/31 13:53:08;;;;;;;3.13;2.63;;;;;;;;;;5058648;27;87457;-66
2024/01/31 13:55:36;;;;;;;4.80;2.60;;;;;;;;;;5061592;27;89908;-66
2024/01/31 13:58:05;;;;;;;2.97;2.30;;;;;;;;;;5061687;27;88043;-66
2024/01/31 14:00:34;;;;;;;5.27;1.90;;;;;;;;;;5062572;27;88861;-66
2024/01/31 14:03:03;;;;;;;3.20;1.97;;;;;;;;;;5062534;27;87571;-66
2024/01/31 14:05:31;;;;;;;3.47;2.37;;;;;;;;;;5061426;27;89371;-66
2024/01/31 14:08:00;;;;;;;4.50;2.43;;;;;;;;;;5059212;27;89138;-66
2024/01/31 14:10:28;;;;;;;5.43;2.03;;;;;;;;;;5060112;27;88763;-66
2024/01/31 14:12:57;;;;;;;3.00;2.20;;;;;;;;;;5060191;27;88989;-66
2024/01/31 14:15:26;;;;;;;3.43;2.33;;;;;;;;;;5061440;27;88565;-66
2024/01/31 14:17:56;;;;;;;3.17;2.33;;;;;;;;;;5062318;27;89133;-66
2024/01/31 14:20:24;;;;;;;6.67;2.10;;;;;;;;;;5061984;27;87906;-66
2024/01/31 14:22:53;;;;;;;2.67;2.40;;;;;;;;;;5062592;27;87638;-66
2024/01/31 14:25:41;;;;;;;3.27;2.00;;;;;;;;;;5053982;27;91285;-66
2024/01/31 14:28:09;;;;;;;4.30;2.47;;;;;;;;;;5049771;27;89208;-66
2024/01/31 14:30:38;;;;;;;11.27;2.60;;;;;;;;;;5061901;27;88816;-66
2024/01/31 14:33:08;;;;;;;6.43;2.43;;;;;;;;;;5060968;27;87493;-66
2024/01/31 14:35:36;;;;;;;3.03;2.27;;;;;;;;;;5062020;27;89693;-66
2024/01/31 14:38:05;;;;;;;2.73;1.77;;;;;;;;;;5061637;27;90126;-66
2024/01/31 14:40:33;;;;;;;2.30;2.10;;;;;;;;;;5061124;27;88588;-66
2024/01/31 14:43:02;;;;;;;4.13;2.33;;;;;;;;;;5055048;27;89527;-66
2024/01/31 14:45:31;;;;;;;3.57;1.93;;;;;;;;;;5061224;27;89450;-65
2024/01/31 14:47:58;;;;;;;1.87;1.60;;;;;;;;;;5060310;27;89375;-66
2024/01/31 14:50:31;;;;;;;3.03;2.03;;;;;;;;;;5060509;27;88866;-66